Time;durP1;ratioP1;P1;durP2;ratioP2;P2;SDS_P1;SDS_P2;PMS_P1;PMS_P2;Temp;Humidity;BMP_temperature;BMP_pressure;BME280_temperature;BME280_humidity;BME280_pressure;Samples;Min_cycle;Max_cycle;Signal;HPM_P1;HPM_P2
2024/02/25 00:00:30;;;;;;;8.38;3.80;;;5.10;99.90;;;;;;5054215;28;20041;-75
2024/02/25 00:02:55;;;;;;;7.18;4.40;;;5.10;99.90;;;;;;5053525;28;20048;-74
2024/02/25 00:05:21;;;;;;;6.93;4.57;;;5.10;99.90;;;;;;5037047;28;20040;-75
2024/02/25 00:07:47;;;;;;;6.43;3.80;;;5.20;99.90;;;;;;5054348;28;20072;-74
2024/02/25 00:10:13;;;;;;;7.22;4.10;;;5.10;99.90;;;;;;5053923;28;20061;-75
2024/02/25 00:12:38;;;;;;;9.07;4.28;;;5.00;99.90;;;;;;5053013;28;20045;-75
2024/02/25 00:15:05;;;;;;;5.68;4.07;;;5.10;99.90;;;;;;5052818;28;20037;-74
2024/02/25 00:17:30;;;;;;;7.80;4.65;;;5.10;99.90;;;;;;5054085;28;20037;-74
2024/02/25 00:19:56;;;;;;;6.03;4.53;;;5.10;99.90;;;;;;5054168;28;20040;-74
2024/02/25 00:22:22;;;;;;;8.98;4.38;;;5.00;99.90;;;;;;5054385;28;20079;-74
2024/02/25 00:24:47;;;;;;;7.93;4.35;;;5.10;99.90;;;;;;5055156;28;20063;-74
2024/02/25 00:27:13;;;;;;;6.00;4.45;;;4.90;99.90;;;;;;5056400;28;20120;-74
2024/02/25 00:29:39;;;;;;;8.45;4.28;;;5.00;99.90;;;;;;5054690;28;20145;-74
2024/02/25 00:32:04;;;;;;;9.32;4.55;;;4.90;99.90;;;;;;5054139;28;20631;-74
2024/02/25 00:34:32;;;;;;;9.43;4.78;;;5.00;99.90;;;;;;5053227;28;20040;-74
2024/02/25 00:36:58;;;;;;;7.45;4.10;;;5.00;99.90;;;;;;5054296;28;20707;-74
2024/02/25 00:39:24;;;;;;;8.43;4.18;;;4.90;99.90;;;;;;5053417;28;20056;-74
2024/02/25 00:41:52;;;;;;;7.97;5.10;;;4.90;99.90;;;;;;5053421;28;20040;-74
2024/02/25 00:44:18;;;;;;;5.03;3.88;;;4.90;99.90;;;;;;5053582;28;20053;-74
2024/02/25 00:46:46;;;;;;;7.35;4.35;;;5.00;99.90;;;;;;5052809;28;20079;-74
2024/02/25 00:49:12;;;;;;;7.78;4.93;;;5.00;99.90;;;;;;5053160;28;20443;-74
2024/02/25 00:51:39;;;;;;;7.38;4.80;;;5.00;99.90;;;;;;5036291;28;20170;-74
2024/02/25 00:54:05;;;;;;;8.98;5.35;;;5.00;99.90;;;;;;5054001;28;20044;-74
2024/02/25 00:56:31;;;;;;;7.03;4.85;;;5.00;99.90;;;;;;5054445;28;20097;-74
2024/02/25 00:58:56;;;;;;;5.50;4.28;;;5.10;99.90;;;;;;5052528;28;20088;-74
2024/02/25 01:01:22;;;;;;;7.93;5.20;;;5.10;99.90;;;;;;5053535;28;20044;-74
2024/02/25 01:03:47;;;;;;;6.20;4.85;;;5.10;99.90;;;;;;5053848;28;20037;-74
2024/02/25 01:06:13;;;;;;;8.02;5.20;;;5.00;99.90;;;;;;5054665;28;20044;-74
2024/02/25 01:08:39;;;;;;;7.32;5.80;;;5.10;99.90;;;;;;5054316;28;20128;-74
2024/02/25 01:11:08;;;;;;;7.47;5.53;;;5.10;99.90;;;;;;5052559;28;20579;-74
2024/02/25 01:13:35;;;;;;;8.82;5.38;;;5.10;99.90;;;;;;5036716;28;20037;-74
2024/02/25 01:16:04;;;;;;;8.93;5.10;;;5.10;99.90;;;;;;5052545;28;20124;-74
2024/02/25 01:18:33;;;;;;;7.88;5.20;;;5.10;99.90;;;;;;5052510;28;20037;-75
2024/02/25 01:20:59;;;;;;;6.82;5.00;;;5.10;99.90;;;;;;5054158;28;20454;-74
2024/02/25 01:23:25;;;;;;;10.18;5.50;;;5.10;99.90;;;;;;5052706;28;20033;-74
2024/02/25 01:25:51;;;;;;;6.97;5.38;;;5.00;99.90;;;;;;5052854;28;20045;-74
2024/02/25 01:28:18;;;;;;;11.48;5.35;;;5.00;99.90;;;;;;5052237;28;20128;-74
2024/02/25 01:30:45;;;;;;;10.73;5.75;;;5.00;99.90;;;;;;5036303;28;20393;-74
2024/02/25 01:33:11;;;;;;;7.70;5.35;;;5.00;99.90;;;;;;5054239;28;20115;-74
2024/02/25 01:35:37;;;;;;;6.88;4.90;;;5.00;99.90;;;;;;5036047;28;20114;-75
2024/02/25 01:38:03;;;;;;;5.90;4.82;;;5.00;99.90;;;;;;5034737;28;20037;-74
2024/02/25 01:40:28;;;;;;;11.90;5.25;;;4.90;99.90;;;;;;5054139;28;20120;-74
2024/02/25 01:43:07;;;;;;;9.65;5.82;;;4.90;99.90;;;;;;5054073;28;20033;-74
2024/02/25 01:45:33;;;;;;;6.78;4.93;;;5.00;99.90;;;;;;5052893;28;20119;-74
2024/02/25 01:47:59;;;;;;;9.05;5.32;;;4.90;99.90;;;;;;5055520;28;20449;-74
2024/02/25 01:50:25;;;;;;;7.57;5.10;;;4.90;99.90;;;;;;5056140;28;20045;-74
2024/02/25 01:52:54;;;;;;;9.10;4.95;;;4.80;99.90;;;;;;5057265;28;20048;-74
2024/02/25 01:55:24;;;;;;;6.13;4.90;;;4.90;99.90;;;;;;5057199;28;20049;-74
2024/02/25 01:57:50;;;;;;;7.63;4.25;;;4.90;99.90;;;;;;5055823;28;20396;-74
2024/02/25 02:00:17;;;;;;;7.70;4.72;;;4.90;99.90;;;;;;5055738;28;20111;-74
2024/02/25 02:02:43;;;;;;;6.45;4.70;;;4.90;99.90;;;;;;5057251;28;20033;-74
2024/02/25 02:05:09;;;;;;;5.78;4.00;;;5.00;99.90;;;;;;5056907;28;20095;-74
2024/02/25 02:07:38;;;;;;;5.85;4.60;;;5.00;99.90;;;;;;5056097;28;20484;-74
2024/02/25 02:10:09;;;;;;;11.23;4.88;;;5.00;99.90;;;;;;5056488;28;20055;-74
2024/02/25 02:12:42;;;;;;;7.78;4.32;;;5.00;99.90;;;;;;5054973;28;20539;-74
2024/02/25 02:15:12;;;;;;;6.78;4.07;;;4.90;99.90;;;;;;5055810;28;20492;-74
2024/02/25 02:17:40;;;;;;;6.00;4.78;;;5.00;99.90;;;;;;5039297;28;20056;-74
2024/02/25 02:20:11;;;;;;;7.00;4.13;;;4.90;99.90;;;;;;5038568;28;20442;-74
2024/02/25 02:22:40;;;;;;;6.57;5.05;;;4.90;99.90;;;;;;5055119;28;20102;-75
2024/02/25 02:25:07;;;;;;;8.40;4.55;;;5.00;99.90;;;;;;5055538;28;20029;-74
2024/02/25 02:27:35;;;;;;;6.82;4.30;;;4.90;99.90;;;;;;5055228;28;20037;-74
2024/02/25 02:30:00;;;;;;;6.82;4.38;;;5.00;99.90;;;;;;5055934;28;20116;-74
2024/02/25 02:32:28;;;;;;;6.63;4.47;;;5.00;99.90;;;;;;5055329;28;20121;-74
2024/02/25 02:34:53;;;;;;;8.25;4.57;;;5.00;99.90;;;;;;5056991;28;20044;-74
2024/02/25 02:37:19;;;;;;;5.35;4.28;;;5.10;99.90;;;;;;5057581;28;20041;-74
2024/02/25 02:39:44;;;;;;;7.50;4.90;;;5.00;99.90;;;;;;5056336;28;20040;-74
2024/02/25 02:42:11;;;;;;;8.65;4.20;;;5.10;99.90;;;;;;5056399;28;20449;-74
2024/02/25 02:44:37;;;;;;;6.97;4.47;;;4.90;99.90;;;;;;5039086;28;20041;-74
2024/02/25 02:47:03;;;;;;;6.18;4.03;;;5.00;99.90;;;;;;5057892;28;20033;-74
2024/02/25 02:49:29;;;;;;;6.70;4.18;;;5.00;99.90;;;;;;5057370;28;20464;-74
2024/02/25 02:51:58;;;;;;;4.90;3.90;;;5.10;99.90;;;;;;5057024;28;20048;-74
2024/02/25 02:54:24;;;;;;;7.97;4.18;;;5.00;99.90;;;;;;5055286;28;20041;-73
2024/02/25 02:56:50;;;;;;;5.57;3.95;;;5.00;99.90;;;;;;5055137;28;20044;-74
2024/02/25 02:59:16;;;;;;;6.75;4.00;;;5.00;99.90;;;;;;5057003;28;20040;-76
2024/02/25 03:01:42;;;;;;;6.07;3.97;;;5.10;99.90;;;;;;5055064;28;20049;-74
2024/02/25 03:04:08;;;;;;;5.72;3.80;;;5.20;99.90;;;;;;5057157;28;20045;-74
2024/02/25 03:06:33;;;;;;;5.15;3.78;;;5.10;99.90;;;;;;5055315;28;20493;-74
2024/02/25 03:08:59;;;;;;;5.47;3.60;;;5.00;99.90;;;;;;5055214;28;20044;-74
2024/02/25 03:11:25;;;;;;;7.65;3.28;;;5.00;99.90;;;;;;5056819;28;20045;-74
2024/02/25 03:13:51;;;;;;;5.13;3.08;;;4.90;99.90;;;;;;5036948;28;20043;-74
2024/02/25 03:16:16;;;;;;;3.90;2.70;;;5.00;99.90;;;;;;5055476;28;20662;-74
2024/02/25 03:18:42;;;;;;;7.60;3.25;;;5.00;99.90;;;;;;5054241;28;20151;-74
2024/02/25 03:21:08;;;;;;;4.90;3.40;;;5.00;99.90;;;;;;5054341;28;20493;-76
2024/02/25 03:23:34;;;;;;;4.93;3.83;;;5.00;99.90;;;;;;5056602;28;20037;-76
2024/02/25 03:25:59;;;;;;;4.68;3.08;;;5.00;99.90;;;;;;5055802;28;20036;-74
2024/02/25 03:28:25;;;;;;;6.20;3.40;;;5.00;99.90;;;;;;5055785;28;20029;-74
2024/02/25 03:30:51;;;;;;;4.28;2.92;;;5.00;99.90;;;;;;5056171;28;20049;-74
2024/02/25 03:33:17;;;;;;;4.47;2.90;;;5.10;99.90;;;;;;5063064;28;20127;-74
2024/02/25 03:35:42;;;;;;;3.92;3.15;;;5.00;99.90;;;;;;5076878;28;20064;-74
2024/02/25 03:38:08;;;;;;;5.05;2.90;;;5.00;99.90;;;;;;5075906;28;20035;-74
2024/02/25 03:40:34;;;;;;;6.63;2.95;;;4.90;99.90;;;;;;5075044;28;20127;-74
2024/02/25 03:42:59;;;;;;;2.65;2.20;;;4.90;99.90;;;;;;5077011;28;20036;-74
2024/02/25 03:45:25;;;;;;;6.40;3.15;;;5.10;99.90;;;;;;5063963;28;20037;-74
2024/02/25 03:47:50;;;;;;;4.18;2.60;;;5.00;99.90;;;;;;5055405;28;20091;-73
2024/02/25 03:50:16;;;;;;;4.05;2.67;;;5.10;99.90;;;;;;5054695;28;20481;-73
2024/02/25 03:52:42;;;;;;;5.15;2.72;;;5.10;99.90;;;;;;5054324;28;20045;-74
2024/02/25 03:55:08;;;;;;;4.57;2.78;;;5.00;99.90;;;;;;5054949;28;20129;-74
2024/02/25 03:57:34;;;;;;;5.40;2.78;;;4.90;99.90;;;;;;5056528;28;20041;-74
2024/02/25 03:59:59;;;;;;;4.72;3.35;;;5.10;99.90;;;;;;5054400;28;20048;-74
2024/02/25 04:02:25;;;;;;;5.28;2.00;;;4.90;99.90;;;;;;5056246;28;20420;-74
2024/02/25 04:04:51;;;;;;;2.95;2.15;;;5.00;99.90;;;;;;5054540;28;20047;-74
2024/02/25 04:07:17;;;;;;;3.75;2.28;;;5.00;99.90;;;;;;5056164;28;20047;-75
2024/02/25 04:09:43;;;;;;;4.72;2.72;;;5.00;99.90;;;;;;5055098;28;20447;-76
2024/02/25 04:12:09;;;;;;;3.67;2.45;;;5.00;99.90;;;;;;5055743;28;20045;-74
2024/02/25 04:14:35;;;;;;;3.10;2.58;;;5.00;99.90;;;;;;5056566;28;20381;-75
2024/02/25 04:17:01;;;;;;;3.38;1.92;;;5.00;99.90;;;;;;5055633;28;20064;-75
2024/02/25 04:19:26;;;;;;;3.70;2.30;;;4.90;99.90;;;;;;5052666;28;20037;-75
2024/02/25 04:21:52;;;;;;;4.65;2.28;;;5.00;99.90;;;;;;5055072;28;20037;-75
2024/02/25 04:24:18;;;;;;;5.95;2.88;;;4.90;99.90;;;;;;5054841;28;20037;-75
2024/02/25 04:26:44;;;;;;;3.05;2.30;;;4.90;99.90;;;;;;5055846;28;20041;-74
2024/02/25 04:29:10;;;;;;;3.70;2.13;;;5.00;99.90;;;;;;5055268;28;20404;-75
2024/02/25 04:31:43;;;;;;;3.55;1.90;;;4.90;99.90;;;;;;5054842;28;20116;-75
2024/02/25 04:34:10;;;;;;;4.88;2.17;;;5.10;99.90;;;;;;5055572;28;20036;-75
2024/02/25 04:36:36;;;;;;;5.47;2.30;;;5.00;99.90;;;;;;5053937;28;20126;-75
2024/02/25 04:39:01;;;;;;;4.65;2.10;;;5.00;99.90;;;;;;5055678;28;20606;-75
2024/02/25 04:41:27;;;;;;;6.40;2.28;;;5.10;99.90;;;;;;5054060;28;20041;-75
2024/02/25 04:43:53;;;;;;;4.85;2.30;;;5.00;99.90;;;;;;5056052;28;20037;-75
2024/02/25 04:46:19;;;;;;;4.53;2.50;;;4.90;99.90;;;;;;5055692;28;20045;-75
2024/02/25 04:48:44;;;;;;;4.72;2.63;;;5.10;99.90;;;;;;5052802;28;20037;-75
2024/02/25 04:51:10;;;;;;;3.22;2.20;;;5.00;99.90;;;;;;5053913;28;20040;-75
2024/02/25 04:53:39;;;;;;;3.88;2.30;;;5.00;99.90;;;;;;5053091;28;20032;-75
2024/02/25 04:56:05;;;;;;;4.65;2.33;;;5.10;99.90;;;;;;5053838;28;20041;-75
2024/02/25 04:58:31;;;;;;;3.85;2.00;;;4.90;99.90;;;;;;5054090;28;20041;-75
2024/02/25 05:00:57;;;;;;;3.80;1.95;;;5.10;99.90;;;;;;5053344;28;20048;-75
2024/02/25 05:03:22;;;;;;;5.35;2.65;;;5.00;99.90;;;;;;5052502;28;20044;-75
2024/02/25 05:05:50;;;;;;;3.03;2.50;;;5.20;99.90;;;;;;5053788;28;20037;-74
2024/02/25 05:08:16;;;;;;;5.47;2.88;;;5.00;99.90;;;;;;5052693;28;20036;-75
2024/02/25 05:10:41;;;;;;;3.92;2.60;;;5.10;99.90;;;;;;5053644;28;20040;-74
2024/02/25 05:13:07;;;;;;;5.50;3.30;;;5.20;99.90;;;;;;5053130;28;20056;-75
2024/02/25 05:15:34;;;;;;;3.90;2.50;;;5.20;99.90;;;;;;5054895;28;20518;-75
2024/02/25 05:18:00;;;;;;;5.72;3.40;;;5.20;99.90;;;;;;5053569;28;20144;-75
2024/02/25 05:20:26;;;;;;;4.55;2.85;;;5.20;99.90;;;;;;5053559;28;20069;-75
2024/02/25 05:22:52;;;;;;;4.05;3.33;;;5.10;99.90;;;;;;5052970;28;20098;-75
2024/02/25 05:25:18;;;;;;;4.90;3.20;;;5.10;99.90;;;;;;5053709;28;20059;-75
2024/02/25 05:27:44;;;;;;;5.30;3.95;;;5.10;99.90;;;;;;5052385;28;20124;-75
2024/02/25 05:30:10;;;;;;;7.97;3.75;;;5.30;99.90;;;;;;5054511;28;20397;-75
2024/02/25 05:32:36;;;;;;;8.57;4.65;;;5.10;99.90;;;;;;5053162;28;20102;-75
2024/02/25 05:35:06;;;;;;;6.82;3.95;;;5.30;99.90;;;;;;5053760;28;20484;-75
2024/02/25 05:37:32;;;;;;;9.32;4.60;;;5.10;99.90;;;;;;5053177;28;20055;-75
2024/02/25 05:39:58;;;;;;;5.35;4.40;;;5.20;99.90;;;;;;5053600;28;20094;-75
2024/02/25 05:42:23;;;;;;;6.45;4.28;;;5.30;99.90;;;;;;5052796;28;20045;-75
2024/02/25 05:44:51;;;;;;;5.93;4.47;;;5.30;99.90;;;;;;5053614;28;20041;-75
2024/02/25 05:47:17;;;;;;;6.85;5.03;;;5.30;99.90;;;;;;5035589;28;20501;-75
2024/02/25 05:49:42;;;;;;;6.55;4.50;;;5.30;99.90;;;;;;5052338;28;20037;-75
2024/02/25 05:52:08;;;;;;;6.63;4.60;;;5.20;99.90;;;;;;5052976;28;20225;-75
2024/02/25 05:54:33;;;;;;;8.07;5.40;;;5.30;99.90;;;;;;5035033;28;20098;-75
2024/02/25 05:56:59;;;;;;;5.93;4.40;;;5.30;99.90;;;;;;5053600;28;20052;-75
2024/02/25 05:59:25;;;;;;;6.78;5.00;;;5.30;99.90;;;;;;5035252;28;20037;-75
2024/02/25 06:01:51;;;;;;;7.20;4.65;;;5.30;99.90;;;;;;5053634;28;20041;-75
2024/02/25 06:04:19;;;;;;;6.75;5.07;;;5.40;99.90;;;;;;5052137;28;20533;-75
2024/02/25 06:06:52;;;;;;;7.65;5.18;;;5.40;99.90;;;;;;5035498;28;20395;-75
2024/02/25 06:09:17;;;;;;;7.43;5.47;;;5.20;99.90;;;;;;5052316;28;20037;-75
2024/02/25 06:11:43;;;;;;;8.02;5.07;;;5.40;99.90;;;;;;5053097;28;20120;-75
2024/02/25 06:14:09;;;;;;;9.77;4.68;;;5.30;99.90;;;;;;5053912;28;20408;-75
2024/02/25 06:16:34;;;;;;;7.55;5.72;;;5.40;99.90;;;;;;5052895;28;20041;-75
2024/02/25 06:19:00;;;;;;;7.63;5.20;;;5.40;99.90;;;;;;5052178;28;20040;-75
2024/02/25 06:21:26;;;;;;;8.68;5.93;;;5.30;99.90;;;;;;5051708;28;20146;-75
2024/02/25 06:23:52;;;;;;;7.28;5.22;;;5.30;99.90;;;;;;5051802;28;20105;-75
2024/02/25 06:26:18;;;;;;;7.65;5.47;;;5.50;99.90;;;;;;5053807;28;20041;-75
2024/02/25 06:28:44;;;;;;;7.60;5.43;;;5.50;99.90;;;;;;5051715;28;20101;-75
2024/02/25 06:31:10;;;;;;;7.53;5.22;;;5.40;99.90;;;;;;5035602;28;20041;-75
2024/02/25 06:33:36;;;;;;;9.02;5.53;;;5.30;99.90;;;;;;5055208;28;20114;-75
2024/02/25 06:36:02;;;;;;;8.82;5.45;;;5.50;99.90;;;;;;5056612;28;20500;-75
2024/02/25 06:38:27;;;;;;;11.05;6.47;;;5.30;99.90;;;;;;5054771;28;20067;-75
2024/02/25 06:40:53;;;;;;;10.88;6.10;;;5.40;99.90;;;;;;5054959;28;20131;-74
2024/02/25 06:43:19;;;;;;;12.35;8.43;;;5.30;99.90;;;;;;5056518;28;20493;-74
2024/02/25 06:45:45;;;;;;;9.73;6.85;;;5.40;99.90;;;;;;5055468;28;20041;-74
2024/02/25 06:48:11;;;;;;;10.07;6.70;;;5.60;99.90;;;;;;5037818;28;20037;-74
2024/02/25 06:50:36;;;;;;;10.52;6.25;;;5.60;99.90;;;;;;5056329;28;20175;-74
2024/02/25 06:53:03;;;;;;;12.63;6.72;;;5.50;99.90;;;;;;5055307;28;20513;-74
2024/02/25 06:55:29;;;;;;;9.40;6.38;;;5.50;99.90;;;;;;5038759;28;20041;-74
2024/02/25 06:57:54;;;;;;;10.27;7.50;;;5.50;99.90;;;;;;5055629;28;20041;-74
2024/02/25 07:00:20;;;;;;;10.77;6.90;;;5.50;99.90;;;;;;5054809;28;20041;-74
2024/02/25 07:02:46;;;;;;;10.65;7.90;;;5.60;99.90;;;;;;5057075;28;20041;-74
2024/02/25 07:05:12;;;;;;;10.90;6.50;;;5.50;99.90;;;;;;5056773;28;20033;-74
2024/02/25 07:07:38;;;;;;;8.32;5.75;;;5.50;99.90;;;;;;5055554;28;20041;-76
2024/02/25 07:10:07;;;;;;;7.20;5.13;;;5.60;99.90;;;;;;5037581;28;20036;-74
2024/02/25 07:12:33;;;;;;;6.32;5.15;;;5.70;99.90;;;;;;5055895;28;20151;-74
2024/02/25 07:14:59;;;;;;;7.60;5.07;;;5.70;99.90;;;;;;5054395;28;20033;-74
2024/02/25 07:17:24;;;;;;;8.07;5.10;;;5.70;99.90;;;;;;5055967;28;20504;-74
2024/02/25 07:19:51;;;;;;;7.93;4.95;;;5.60;99.90;;;;;;5055121;28;20029;-74
2024/02/25 07:22:17;;;;;;;6.97;4.70;;;5.70;99.90;;;;;;5055054;28;20064;-74
2024/02/25 07:24:43;;;;;;;7.70;4.78;;;5.80;99.90;;;;;;5055001;28;20079;-75
2024/02/25 07:27:09;;;;;;;8.48;4.88;;;5.70;99.90;;;;;;5056011;28;20511;-74
2024/02/25 07:29:35;;;;;;;6.47;4.47;;;5.70;99.90;;;;;;5055369;28;20045;-75
2024/02/25 07:32:00;;;;;;;10.07;5.00;;;5.80;99.90;;;;;;5055758;28;20041;-74
2024/02/25 07:34:26;;;;;;;7.85;4.70;;;5.70;99.90;;;;;;5055829;28;20037;-74
2024/02/25 07:36:52;;;;;;;7.65;5.30;;;5.70;99.90;;;;;;5055527;28;20040;-74
2024/02/25 07:39:17;;;;;;;6.47;4.68;;;5.70;99.90;;;;;;5055512;28;20048;-74
2024/02/25 07:41:47;;;;;;;7.32;4.32;;;5.70;99.90;;;;;;5054471;28;20049;-74
2024/02/25 07:44:13;;;;;;;6.95;4.03;;;5.70;99.90;;;;;;5056014;28;20057;-74
2024/02/25 07:46:39;;;;;;;7.78;4.70;;;5.80;99.90;;;;;;5055268;28;20041;-74
2024/02/25 07:49:05;;;;;;;7.40;4.72;;;5.80;99.90;;;;;;5056483;28;20039;-74
2024/02/25 07:51:34;;;;;;;6.07;4.50;;;5.80;99.90;;;;;;5055363;28;20055;-74
2024/02/25 07:54:00;;;;;;;7.18;4.80;;;5.80;99.90;;;;;;5056023;28;20074;-75
2024/02/25 07:56:27;;;;;;;5.25;3.72;;;6.00;99.90;;;;;;5056808;28;20044;-74
2024/02/25 07:58:53;;;;;;;7.30;4.30;;;5.80;99.90;;;;;;5057993;28;20041;-74
2024/02/25 08:01:18;;;;;;;6.82;4.57;;;5.90;99.90;;;;;;5057067;28;20531;-73
2024/02/25 08:03:44;;;;;;;7.18;4.65;;;6.00;99.90;;;;;;5058413;28;20114;-73
2024/02/25 08:06:10;;;;;;;7.93;4.38;;;6.10;99.90;;;;;;5055956;28;20037;-74
2024/02/25 08:08:36;;;;;;;5.40;4.05;;;5.90;99.90;;;;;;5056166;28;20037;-74
2024/02/25 08:11:01;;;;;;;5.85;4.32;;;6.10;99.90;;;;;;5056117;28;20492;-75
2024/02/25 08:13:27;;;;;;;7.70;4.57;;;5.90;99.90;;;;;;5056285;28;20051;-75
2024/02/25 08:15:52;;;;;;;6.30;3.97;;;5.90;99.90;;;;;;5050875;28;20766;-75
2024/02/25 08:18:18;;;;;;;6.63;4.10;;;6.10;99.90;;;;;;5035445;28;20046;-76
2024/02/25 08:20:44;;;;;;;8.90;4.25;;;6.00;99.90;;;;;;5036105;28;20037;-76
2024/02/25 08:23:10;;;;;;;5.53;3.90;;;6.10;99.90;;;;;;5036883;28;20401;-76
2024/02/25 08:25:36;;;;;;;5.95;3.72;;;6.10;99.90;;;;;;5043210;28;20037;-76
2024/02/25 08:28:01;;;;;;;5.18;3.50;;;6.00;99.90;;;;;;5049230;28;20069;-76
2024/02/25 08:30:27;;;;;;;7.70;4.55;;;6.20;99.90;;;;;;5055001;28;20048;-75
2024/02/25 08:32:54;;;;;;;8.20;3.97;;;6.00;99.90;;;;;;5053709;28;20043;-75
2024/02/25 08:35:19;;;;;;;6.70;4.15;;;6.10;99.90;;;;;;5052641;28;20045;-76
2024/02/25 08:37:46;;;;;;;7.65;4.57;;;6.30;99.90;;;;;;5055546;28;20041;-75
2024/02/25 08:40:12;;;;;;;7.95;4.57;;;6.10;99.90;;;;;;5054407;28;20051;-75
2024/02/25 08:42:38;;;;;;;9.15;5.30;;;6.20;99.90;;;;;;5055444;28;20041;-76
2024/02/25 08:45:05;;;;;;;7.00;4.63;;;6.20;99.90;;;;;;5054690;28;20032;-76
2024/02/25 08:47:31;;;;;;;6.18;4.82;;;6.40;99.90;;;;;;5045673;28;20036;-75
2024/02/25 08:49:57;;;;;;;7.57;5.38;;;6.20;99.90;;;;;;5050635;28;20045;-74
2024/02/25 08:52:23;;;;;;;6.95;4.38;;;6.30;99.90;;;;;;5048949;28;20090;-75
2024/02/25 08:54:49;;;;;;;5.25;4.22;;;6.50;99.90;;;;;;5075590;28;20040;-75
2024/02/25 08:57:15;;;;;;;6.50;4.15;;;6.50;99.90;;;;;;5074250;28;20124;-75
2024/02/25 08:59:41;;;;;;;7.75;4.75;;;6.50;99.90;;;;;;5016572;28;20044;-77
2024/02/25 09:02:07;;;;;;;7.43;4.55;;;6.50;99.90;;;;;;5012041;28;20044;-77
2024/02/25 09:04:32;;;;;;;6.20;3.90;;;6.50;99.90;;;;;;5020109;28;20033;-79
2024/02/25 09:06:59;;;;;;;8.52;5.15;;;6.60;99.90;;;;;;5020927;28;20033;-79
2024/02/25 09:09:27;;;;;;;9.25;4.93;;;6.50;99.90;;;;;;5021171;28;20920;-78
2024/02/25 09:11:53;;;;;;;6.57;4.78;;;6.60;99.90;;;;;;5013099;28;20037;-77
2024/02/25 09:14:18;;;;;;;7.63;4.35;;;6.70;99.90;;;;;;5015237;28;20056;-77
2024/02/25 09:16:44;;;;;;;6.78;4.60;;;6.60;99.90;;;;;;5015188;28;20041;-75
2024/02/25 09:19:10;;;;;;;5.90;4.78;;;6.70;99.90;;;;;;5013441;28;20106;-75
2024/02/25 09:21:36;;;;;;;6.13;4.35;;;6.70;99.90;;;;;;5017637;28;20045;-76
2024/02/25 09:24:02;;;;;;;6.20;4.30;;;6.60;99.90;;;;;;5017334;28;20056;-77
2024/02/25 09:26:28;;;;;;;8.18;4.78;;;6.80;99.90;;;;;;5015770;28;20555;-75
2024/02/25 09:28:54;;;;;;;7.18;4.65;;;6.70;99.90;;;;;;5015269;28;20037;-77
2024/02/25 09:31:19;;;;;;;6.82;4.90;;;6.70;99.90;;;;;;5019286;28;20045;-74
2024/02/25 09:33:54;;;;;;;8.48;5.15;;;6.70;99.90;;;;;;5018680;28;20037;-78
2024/02/25 09:36:23;;;;;;;8.18;5.15;;;6.90;99.90;;;;;;5019811;28;20036;-75
2024/02/25 09:38:53;;;;;;;8.00;5.68;;;7.00;99.90;;;;;;5012640;28;20044;-74
2024/02/25 09:41:29;;;;;;;9.20;5.97;;;6.90;99.90;;;;;;5013636;28;20152;-73
2024/02/25 09:43:56;;;;;;;9.68;5.50;;;6.90;99.90;;;;;;5011943;28;20820;-74
2024/02/25 09:46:24;;;;;;;8.00;5.70;;;6.90;99.90;;;;;;5015137;28;20033;-74
2024/02/25 09:48:52;;;;;;;9.35;6.03;;;7.20;99.90;;;;;;5009202;28;20037;-73
2024/02/25 09:51:21;;;;;;;9.40;5.80;;;7.20;99.90;;;;;;5012813;28;20119;-75
2024/02/25 09:53:49;;;;;;;10.23;6.28;;;7.30;99.90;;;;;;4996870;28;20087;-74
2024/02/25 09:56:15;;;;;;;9.35;6.07;;;7.10;99.90;;;;;;5013098;28;20292;-76
2024/02/25 09:58:41;;;;;;;7.57;5.35;;;7.30;99.90;;;;;;5016247;28;20933;-74
2024/02/25 10:01:07;;;;;;;8.30;5.80;;;7.20;99.90;;;;;;5020700;28;20349;-75
2024/02/25 10:03:33;;;;;;;8.15;5.97;;;7.20;99.90;;;;;;5019647;28;20827;-72
2024/02/25 10:05:59;;;;;;;8.73;5.68;;;7.20;99.90;;;;;;5060733;28;20037;-73
2024/02/25 10:08:24;;;;;;;7.38;5.05;;;7.30;99.90;;;;;;5046436;28;20120;-74
2024/02/25 10:10:51;;;;;;;8.30;6.18;;;7.40;99.90;;;;;;5048647;28;20045;-74
2024/02/25 10:13:17;;;;;;;10.07;6.07;;;7.30;99.90;;;;;;5047148;28;20045;-74
2024/02/25 10:15:42;;;;;;;9.05;5.78;;;7.20;99.90;;;;;;5030177;28;20080;-73
2024/02/25 10:18:11;;;;;;;7.20;5.00;;;7.40;99.90;;;;;;5046263;28;20087;-74
2024/02/25 10:20:37;;;;;;;8.30;5.38;;;7.20;99.90;;;;;;5044946;28;20049;-74
2024/02/25 10:23:10;;;;;;;8.70;5.85;;;7.20;99.90;;;;;;5045106;28;20105;-75
2024/02/25 10:25:37;;;;;;;;;;;7.20;99.90;;;;;;5045312;28;20094;-76
2024/02/25 10:28:17;;;;;;;6.88;5.03;;;7.30;99.90;;;;;;5047275;28;19917;-74
2024/02/25 10:31:05;;;;;;;7.50;5.38;;;7.20;99.90;;;;;;5053636;28;20044;-74
2024/02/25 10:33:32;;;;;;;10.07;5.55;;;7.40;99.90;;;;;;5047215;28;20530;-74
2024/02/25 10:36:16;;;;;;;8.23;5.72;;;7.40;99.90;;;;;;5046384;28;20044;-74
2024/02/25 10:38:46;;;;;;;9.05;6.18;;;7.40;99.90;;;;;;5045541;28;20042;-74
2024/02/25 10:41:15;;;;;;;7.88;5.38;;;7.50;99.90;;;;;;5045598;28;20037;-74
2024/02/25 10:43:43;;;;;;;8.93;5.85;;;7.50;99.90;;;;;;5045238;28;20100;-74
2024/02/25 10:46:31;;;;;;;9.02;5.97;;;7.50;99.90;;;;;;5049107;28;20048;-76
2024/02/25 10:48:58;;;;;;;7.55;5.47;;;7.60;99.90;;;;;;5028913;28;20540;-75
2024/02/25 10:51:28;;;;;;;7.40;5.30;;;7.40;99.90;;;;;;5045589;28;20041;-75
2024/02/25 10:53:54;;;;;;;9.43;5.60;;;7.50;99.90;;;;;;5045289;28;20104;-74
2024/02/25 10:56:20;;;;;;;7.80;5.45;;;7.70;99.90;;;;;;5046778;28;20519;-75
2024/02/25 10:58:46;;;;;;;8.20;5.20;;;7.60;99.90;;;;;;5046014;28;20037;-74
2024/02/25 11:01:13;;;;;;;9.80;5.57;;;7.60;99.90;;;;;;5043425;28;20036;-74
2024/02/25 11:03:40;;;;;;;13.20;5.68;;;7.70;99.90;;;;;;5045304;28;20037;-74
2024/02/25 11:06:09;;;;;;;9.23;5.53;;;7.80;99.90;;;;;;5046264;28;20408;-74
2024/02/25 11:08:40;;;;;;;7.43;5.70;;;7.90;99.90;;;;;;5043576;28;20493;-74
2024/02/25 11:11:11;;;;;;;8.35;6.05;;;8.00;99.90;;;;;;5045300;28;20048;-74
2024/02/25 11:13:44;;;;;;;8.32;6.47;;;8.10;99.90;;;;;;5021436;28;20073;-74
2024/02/25 11:16:10;;;;;;;9.25;5.38;;;8.10;99.90;;;;;;5035795;28;20485;-74
2024/02/25 11:18:43;;;;;;;9.13;5.47;;;8.10;99.90;;;;;;5036702;28;20048;-74
2024/02/25 11:21:09;;;;;;;8.90;5.72;;;8.20;99.90;;;;;;5068181;28;20099;-74
2024/02/25 11:23:43;;;;;;;10.40;6.90;;;8.20;99.90;;;;;;5036482;28;20052;-74
2024/02/25 11:26:33;;;;;;;9.93;6.28;;;8.20;99.90;;;;;;5035520;28;20536;-74
2024/02/25 11:29:22;;;;;;;8.38;5.75;;;8.30;99.90;;;;;;5034572;28;20049;-74
2024/02/25 11:31:56;;;;;;;10.93;6.47;;;8.30;99.90;;;;;;5034182;28;20080;-74
2024/02/25 11:34:26;;;;;;;11.50;6.93;;;8.40;99.90;;;;;;5036806;28;20051;-74
2024/02/25 11:36:54;;;;;;;8.65;5.90;;;8.50;99.90;;;;;;5034549;28;20041;-74
2024/02/25 11:39:22;;;;;;;10.80;6.50;;;8.60;99.90;;;;;;5033484;28;20048;-74
2024/02/25 11:41:49;;;;;;;11.13;6.63;;;8.60;99.90;;;;;;5034151;28;20076;-73
2024/02/25 11:44:16;;;;;;;9.70;6.60;;;8.70;99.90;;;;;;5035176;28;20049;-74
2024/02/25 11:46:42;;;;;;;9.85;7.05;;;8.80;99.90;;;;;;5032994;28;20084;-74
2024/02/25 11:49:08;;;;;;;10.57;6.40;;;8.90;99.90;;;;;;5034238;28;20056;-73
2024/02/25 11:51:34;;;;;;;10.80;7.38;;;8.90;99.90;;;;;;5035864;28;20077;-74
2024/02/25 11:53:59;;;;;;;10.48;7.10;;;9.10;99.90;;;;;;5034807;28;20524;-74
2024/02/25 11:56:26;;;;;;;10.90;7.13;;;9.00;99.90;;;;;;5034974;28;20038;-74
2024/02/25 11:58:52;;;;;;;11.88;7.45;;;8.90;99.90;;;;;;5034384;28;20033;-73
2024/02/25 12:01:18;;;;;;;11.43;6.70;;;8.90;99.90;;;;;;5033283;28;20056;-73
2024/02/25 12:03:43;;;;;;;9.63;6.50;;;9.00;99.90;;;;;;5033853;28;20489;-74
2024/02/25 12:06:09;;;;;;;11.18;7.20;;;9.00;99.90;;;;;;5034258;28;20088;-73
2024/02/25 12:08:34;;;;;;;11.35;7.72;;;8.90;99.90;;;;;;5043012;28;20025;-73
2024/02/25 12:11:02;;;;;;;9.27;6.18;;;9.00;99.90;;;;;;5043205;28;20044;-74
2024/02/25 12:13:28;;;;;;;9.57;6.82;;;8.90;99.90;;;;;;5042604;28;20047;-74
2024/02/25 12:15:54;;;;;;;11.23;7.03;;;9.00;99.90;;;;;;5040680;28;20045;-74
2024/02/25 12:18:20;;;;;;;9.43;5.68;;;9.00;99.90;;;;;;5033155;28;20037;-73
2024/02/25 12:20:46;;;;;;;9.20;5.97;;;9.00;99.90;;;;;;5034719;28;20048;-74
2024/02/25 12:23:13;;;;;;;15.75;7.32;;;9.00;99.90;;;;;;5034334;28;20037;-74
2024/02/25 12:25:39;;;;;;;10.27;7.20;;;8.80;99.90;;;;;;5034566;28;20076;-74
2024/02/25 12:28:10;;;;;;;9.63;6.72;;;8.80;99.90;;;;;;5034942;28;20489;-74
2024/02/25 12:30:37;;;;;;;8.85;6.35;;;8.70;99.90;;;;;;5017523;28;20703;-75
2024/02/25 12:33:05;;;;;;;12.40;7.55;;;8.80;99.90;;;;;;5035112;28;20065;-73
2024/02/25 12:35:31;;;;;;;9.55;6.38;;;8.90;99.90;;;;;;5068193;28;20049;-74
2024/02/25 12:37:57;;;;;;;8.43;5.20;;;8.90;99.90;;;;;;5050314;28;20047;-74
2024/02/25 12:40:23;;;;;;;7.32;5.32;;;9.00;99.90;;;;;;5035652;28;20116;-74
2024/02/25 12:42:52;;;;;;;9.25;5.38;;;9.00;99.90;;;;;;5035337;28;20038;-73
2024/02/25 12:45:19;;;;;;;6.38;4.38;;;9.00;99.90;;;;;;5034582;28;20042;-74
2024/02/25 12:47:45;;;;;;;5.68;3.72;;;8.90;99.90;;;;;;5036277;28;20536;-74
2024/02/25 12:50:11;;;;;;;5.38;3.97;;;8.70;99.90;;;;;;5035721;28;20041;-74
2024/02/25 12:52:41;;;;;;;5.15;3.60;;;8.70;99.90;;;;;;5035679;28;20049;-74